sensor_id;sensor_type;location;lat;lon;timestamp;P1;durP1;ratioP1;P2;durP2;ratioP2
28437;SDS011;15667;52.376;9.708;2023-04-25T00:01:37;20.38;;;6.13;;
28437;SDS011;15667;52.376;9.708;2023-04-25T00:04:03;19.92;;;6.47;;
28437;SDS011;15667;52.376;9.708;2023-04-25T00:06:31;17.95;;;6.88;;
28437;SDS011;15667;52.376;9.708;2023-04-25T00:08:57;17.00;;;5.53;;
28437;SDS011;15667;52.376;9.708;2023-04-25T00:11:23;17.33;;;6.20;;
28437;SDS011;15667;52.376;9.708;2023-04-25T00:13:49;18.58;;;5.70;;
28437;SDS011;15667;52.376;9.708;2023-04-25T00:16:19;16.85;;;5.82;;
28437;SDS011;15667;52.376;9.708;2023-04-25T00:18:44;22.55;;;6.60;;
28437;SDS011;15667;52.376;9.708;2023-04-25T00:21:16;21.05;;;6.38;;
28437;SDS011;15667;52.376;9.708;2023-04-25T00:23:45;21.33;;;5.47;;
28437;SDS011;15667;52.376;9.708;2023-04-25T00:26:11;13.13;;;5.25;;
28437;SDS011;15667;52.376;9.708;2023-04-25T00:28:37;20.70;;;5.63;;
28437;SDS011;15667;52.376;9.708;2023-04-25T00:31:03;24.50;;;5.65;;
28437;SDS011;15667;52.376;9.708;2023-04-25T00:33:28;19.60;;;5.80;;
28437;SDS011;15667;52.376;9.708;2023-04-25T00:35:55;19.23;;;5.57;;
28437;SDS011;15667;52.376;9.708;2023-04-25T00:38:21;18.30;;;4.90;;
28437;SDS011;15667;52.376;9.708;2023-04-25T00:40:46;17.70;;;5.38;;
28437;SDS011;15667;52.376;9.708;2023-04-25T00:43:12;16.35;;;4.35;;
28437;SDS011;15667;52.376;9.708;2023-04-25T00:45:38;15.05;;;4.82;;
28437;SDS011;15667;52.376;9.708;2023-04-25T00:48:05;13.95;;;5.15;;
28437;SDS011;15667;52.376;9.708;2023-04-25T00:50:31;12.40;;;4.80;;
28437;SDS011;15667;52.376;9.708;2023-04-25T00:52:58;14.02;;;4.50;;
28437;SDS011;15667;52.376;9.708;2023-04-25T00:55:24;14.07;;;4.93;;
28437;SDS011;15667;52.376;9.708;2023-04-25T00:57:50;11.32;;;4.40;;
28437;SDS011;15667;52.376;9.708;2023-04-25T01:00:15;15.68;;;4.88;;
28437;SDS011;15667;52.376;9.708;2023-04-25T01:02:42;16.40;;;5.13;;
28437;SDS011;15667;52.376;9.708;2023-04-25T01:05:09;15.48;;;4.78;;
28437;SDS011;15667;52.376;9.708;2023-04-25T01:07:36;12.13;;;4.95;;
28437;SDS011;15667;52.376;9.708;2023-04-25T01:10:03;14.57;;;5.03;;
28437;SDS011;15667;52.376;9.708;2023-04-25T01:12:29;14.60;;;5.35;;
28437;SDS011;15667;52.376;9.708;2023-04-25T01:14:55;15.88;;;5.55;;
28437;SDS011;15667;52.376;9.708;2023-04-25T01:17:21;17.42;;;5.68;;
28437;SDS011;15667;52.376;9.708;2023-04-25T01:19:47;18.13;;;5.38;;
28437;SDS011;15667;52.376;9.708;2023-04-25T01:22:14;18.33;;;5.43;;
28437;SDS011;15667;52.376;9.708;2023-04-25T01:24:39;13.70;;;5.47;;
28437;SDS011;15667;52.376;9.708;2023-04-25T01:27:06;19.00;;;5.32;;
28437;SDS011;15667;52.376;9.708;2023-04-25T01:29:32;16.17;;;6.22;;
28437;SDS011;15667;52.376;9.708;2023-04-25T01:31:59;13.95;;;5.47;;
28437;SDS011;15667;52.376;9.708;2023-04-25T01:34:26;15.98;;;6.18;;
28437;SDS011;15667;52.376;9.708;2023-04-25T01:36:51;18.58;;;5.70;;
28437;SDS011;15667;52.376;9.708;2023-04-25T01:39:18;13.25;;;5.60;;
28437;SDS011;15667;52.376;9.708;2023-04-25T01:41:45;14.55;;;5.50;;
28437;SDS011;15667;52.376;9.708;2023-04-25T01:44:11;17.10;;;5.88;;
28437;SDS011;15667;52.376;9.708;2023-04-25T01:46:37;13.02;;;5.40;;
28437;SDS011;15667;52.376;9.708;2023-04-25T01:49:03;15.07;;;5.72;;
28437;SDS011;15667;52.376;9.708;2023-04-25T01:51:29;19.02;;;6.20;;
28437;SDS011;15667;52.376;9.708;2023-04-25T01:53:55;14.25;;;6.05;;
28437;SDS011;15667;52.376;9.708;2023-04-25T01:56:22;18.30;;;5.80;;
28437;SDS011;15667;52.376;9.708;2023-04-25T01:58:48;12.40;;;5.55;;
28437;SDS011;15667;52.376;9.708;2023-04-25T02:01:14;16.98;;;5.78;;
28437;SDS011;15667;52.376;9.708;2023-04-25T02:03:39;15.25;;;5.72;;
28437;SDS011;15667;52.376;9.708;2023-04-25T02:06:05;15.57;;;6.10;;
28437;SDS011;15667;52.376;9.708;2023-04-25T02:08:31;15.70;;;5.68;;
28437;SDS011;15667;52.376;9.708;2023-04-25T02:10:57;14.00;;;5.60;;
28437;SDS011;15667;52.376;9.708;2023-04-25T02:13:22;17.45;;;6.13;;
28437;SDS011;15667;52.376;9.708;2023-04-25T02:15:48;18.33;;;6.20;;
28437;SDS011;15667;52.376;9.708;2023-04-25T02:18:14;20.98;;;6.60;;
28437;SDS011;15667;52.376;9.708;2023-04-25T02:20:41;19.85;;;6.28;;
28437;SDS011;15667;52.376;9.708;2023-04-25T02:23:07;15.90;;;5.65;;
28437;SDS011;15667;52.376;9.708;2023-04-25T02:25:33;15.57;;;5.88;;
28437;SDS011;15667;52.376;9.708;2023-04-25T02:27:58;16.52;;;5.88;;
28437;SDS011;15667;52.376;9.708;2023-04-25T02:30:24;19.50;;;5.70;;
28437;SDS011;15667;52.376;9.708;2023-04-25T02:32:49;16.25;;;4.60;;
28437;SDS011;15667;52.376;9.708;2023-04-25T02:35:15;22.85;;;4.97;;
28437;SDS011;15667;52.376;9.708;2023-04-25T02:37:41;15.07;;;4.60;;
28437;SDS011;15667;52.376;9.708;2023-04-25T02:40:07;21.33;;;4.40;;
28437;SDS011;15667;52.376;9.708;2023-04-25T02:42:33;26.70;;;5.40;;
28437;SDS011;15667;52.376;9.708;2023-04-25T02:44:59;19.15;;;4.15;;
28437;SDS011;15667;52.376;9.708;2023-04-25T02:47:28;25.20;;;4.45;;
28437;SDS011;15667;52.376;9.708;2023-04-25T02:49:54;23.83;;;4.68;;
28437;SDS011;15667;52.376;9.708;2023-04-25T02:52:19;15.13;;;4.15;;
28437;SDS011;15667;52.376;9.708;2023-04-25T02:54:46;36.22;;;4.65;;
28437;SDS011;15667;52.376;9.708;2023-04-25T02:57:11;18.10;;;4.35;;
28437;SDS011;15667;52.376;9.708;2023-04-25T02:59:37;16.15;;;4.15;;
28437;SDS011;15667;52.376;9.708;2023-04-25T03:02:03;24.67;;;4.68;;
28437;SDS011;15667;52.376;9.708;2023-04-25T03:04:28;14.38;;;3.53;;
28437;SDS011;15667;52.376;9.708;2023-04-25T03:06:54;24.90;;;4.30;;
28437;SDS011;15667;52.376;9.708;2023-04-25T03:09:20;27.75;;;5.10;;
28437;SDS011;15667;52.376;9.708;2023-04-25T03:11:45;15.98;;;3.97;;
28437;SDS011;15667;52.376;9.708;2023-04-25T03:14:11;37.08;;;5.25;;
28437;SDS011;15667;52.376;9.708;2023-04-25T03:16:38;22.05;;;4.05;;
28437;SDS011;15667;52.376;9.708;2023-04-25T03:19:04;22.17;;;4.90;;
28437;SDS011;15667;52.376;9.708;2023-04-25T03:21:30;19.58;;;4.88;;
28437;SDS011;15667;52.376;9.708;2023-04-25T03:23:57;20.13;;;4.40;;
28437;SDS011;15667;52.376;9.708;2023-04-25T03:26:23;15.43;;;3.30;;
28437;SDS011;15667;52.376;9.708;2023-04-25T03:28:49;17.08;;;4.15;;
28437;SDS011;15667;52.376;9.708;2023-04-25T03:31:15;20.52;;;4.20;;
28437;SDS011;15667;52.376;9.708;2023-04-25T03:33:41;21.35;;;4.38;;
28437;SDS011;15667;52.376;9.708;2023-04-25T03:36:07;28.63;;;4.85;;
28437;SDS011;15667;52.376;9.708;2023-04-25T03:38:35;23.38;;;4.68;;
28437;SDS011;15667;52.376;9.708;2023-04-25T03:41:04;20.05;;;4.55;;
28437;SDS011;15667;52.376;9.708;2023-04-25T03:43:32;23.10;;;4.53;;
28437;SDS011;15667;52.376;9.708;2023-04-25T03:45:58;18.58;;;4.10;;
28437;SDS011;15667;52.376;9.708;2023-04-25T03:48:23;17.88;;;4.65;;
28437;SDS011;15667;52.376;9.708;2023-04-25T03:50:51;22.02;;;4.45;;
28437;SDS011;15667;52.376;9.708;2023-04-25T03:53:17;19.95;;;4.55;;
28437;SDS011;15667;52.376;9.708;2023-04-25T03:55:42;18.77;;;3.97;;
28437;SDS011;15667;52.376;9.708;2023-04-25T03:58:08;22.42;;;4.63;;
28437;SDS011;15667;52.376;9.708;2023-04-25T04:00:34;29.58;;;5.03;;
28437;SDS011;15667;52.376;9.708;2023-04-25T04:03:00;19.88;;;4.57;;
28437;SDS011;15667;52.376;9.708;2023-04-25T04:05:26;19.65;;;4.65;;
28437;SDS011;15667;52.376;9.708;2023-04-25T04:07:52;21.55;;;4.32;;
28437;SDS011;15667;52.376;9.708;2023-04-25T04:10:18;16.25;;;3.95;;
28437;SDS011;15667;52.376;9.708;2023-04-25T04:12:44;21.55;;;4.72;;
28437;SDS011;15667;52.376;9.708;2023-04-25T04:15:10;28.13;;;4.93;;
28437;SDS011;15667;52.376;9.708;2023-04-25T04:17:36;20.27;;;4.45;;
28437;SDS011;15667;52.376;9.708;2023-04-25T04:20:01;23.05;;;4.63;;
28437;SDS011;15667;52.376;9.708;2023-04-25T04:22:28;20.77;;;4.50;;
28437;SDS011;15667;52.376;9.708;2023-04-25T04:24:54;29.45;;;4.55;;
28437;SDS011;15667;52.376;9.708;2023-04-25T04:27:21;21.85;;;4.43;;
28437;SDS011;15667;52.376;9.708;2023-04-25T04:29:47;22.00;;;4.43;;
28437;SDS011;15667;52.376;9.708;2023-04-25T04:32:14;31.98;;;5.05;;
28437;SDS011;15667;52.376;9.708;2023-04-25T04:34:40;24.17;;;4.10;;
28437;SDS011;15667;52.376;9.708;2023-04-25T04:37:06;72.90;;;22.17;;
28437;SDS011;15667;52.376;9.708;2023-04-25T04:39:35;27.52;;;8.02;;
28437;SDS011;15667;52.376;9.708;2023-04-25T04:42:02;22.85;;;4.20;;
28437;SDS011;15667;52.376;9.708;2023-04-25T04:44:28;24.08;;;4.75;;
28437;SDS011;15667;52.376;9.708;2023-04-25T04:46:57;24.05;;;4.72;;
28437;SDS011;15667;52.376;9.708;2023-04-25T04:49:24;23.60;;;4.57;;
28437;SDS011;15667;52.376;9.708;2023-04-25T04:51:49;20.27;;;4.40;;
28437;SDS011;15667;52.376;9.708;2023-04-25T04:54:15;23.13;;;4.47;;
28437;SDS011;15667;52.376;9.708;2023-04-25T04:56:41;26.25;;;4.28;;
28437;SDS011;15667;52.376;9.708;2023-04-25T05:01:47;27.23;;;4.75;;
28437;SDS011;15667;52.376;9.708;2023-04-25T05:04:12;13.43;;;3.35;;
28437;SDS011;15667;52.376;9.708;2023-04-25T05:06:38;27.10;;;4.10;;
28437;SDS011;15667;52.376;9.708;2023-04-25T05:09:04;23.42;;;5.20;;
28437;SDS011;15667;52.376;9.708;2023-04-25T05:11:29;26.08;;;4.70;;
28437;SDS011;15667;52.376;9.708;2023-04-25T05:13:55;15.73;;;3.38;;
28437;SDS011;15667;52.376;9.708;2023-04-25T05:16:21;20.70;;;4.20;;
28437;SDS011;15667;52.376;9.708;2023-04-25T05:18:47;18.23;;;4.38;;
28437;SDS011;15667;52.376;9.708;2023-04-25T05:21:12;27.05;;;5.32;;
28437;SDS011;15667;52.376;9.708;2023-04-25T05:23:38;19.42;;;4.15;;
28437;SDS011;15667;52.376;9.708;2023-04-25T05:26:07;26.92;;;4.47;;
28437;SDS011;15667;52.376;9.708;2023-04-25T05:28:38;17.10;;;4.40;;
28437;SDS011;15667;52.376;9.708;2023-04-25T05:31:07;26.50;;;4.60;;
28437;SDS011;15667;52.376;9.708;2023-04-25T05:33:34;25.95;;;4.63;;
28437;SDS011;15667;52.376;9.708;2023-04-25T05:36:00;21.08;;;4.60;;
28437;SDS011;15667;52.376;9.708;2023-04-25T05:38:26;27.40;;;4.97;;
28437;SDS011;15667;52.376;9.708;2023-04-25T05:40:52;29.63;;;3.88;;
28437;SDS011;15667;52.376;9.708;2023-04-25T05:43:17;22.15;;;4.07;;
28437;SDS011;15667;52.376;9.708;2023-04-25T05:45:43;17.40;;;3.88;;
28437;SDS011;15667;52.376;9.708;2023-04-25T05:48:08;26.60;;;3.95;;
28437;SDS011;15667;52.376;9.708;2023-04-25T05:50:34;27.52;;;4.70;;
28437;SDS011;15667;52.376;9.708;2023-04-25T05:53:00;17.27;;;3.25;;
28437;SDS011;15667;52.376;9.708;2023-04-25T05:55:25;23.90;;;4.38;;
28437;SDS011;15667;52.376;9.708;2023-04-25T05:57:51;16.85;;;3.92;;
28437;SDS011;15667;52.376;9.708;2023-04-25T06:00:16;27.73;;;4.00;;
28437;SDS011;15667;52.376;9.708;2023-04-25T06:02:43;25.08;;;4.20;;
28437;SDS011;15667;52.376;9.708;2023-04-25T06:05:09;25.48;;;3.92;;
28437;SDS011;15667;52.376;9.708;2023-04-25T06:07:35;21.55;;;3.92;;
28437;SDS011;15667;52.376;9.708;2023-04-25T06:10:00;19.20;;;3.45;;
28437;SDS011;15667;52.376;9.708;2023-04-25T06:12:26;18.15;;;3.40;;
28437;SDS011;15667;52.376;9.708;2023-04-25T06:14:52;26.92;;;3.83;;
28437;SDS011;15667;52.376;9.708;2023-04-25T06:17:18;15.73;;;3.58;;
28437;SDS011;15667;52.376;9.708;2023-04-25T06:19:43;18.95;;;3.45;;
28437;SDS011;15667;52.376;9.708;2023-04-25T06:22:09;17.52;;;3.95;;
28437;SDS011;15667;52.376;9.708;2023-04-25T06:24:35;26.30;;;3.55;;
28437;SDS011;15667;52.376;9.708;2023-04-25T06:27:01;20.88;;;3.53;;
28437;SDS011;15667;52.376;9.708;2023-04-25T06:29:26;22.85;;;4.13;;
28437;SDS011;15667;52.376;9.708;2023-04-25T06:31:52;23.77;;;4.25;;
28437;SDS011;15667;52.376;9.708;2023-04-25T06:34:17;23.90;;;3.95;;
28437;SDS011;15667;52.376;9.708;2023-04-25T06:36:43;14.43;;;3.13;;
28437;SDS011;15667;52.376;9.708;2023-04-25T06:39:09;15.52;;;2.95;;
28437;SDS011;15667;52.376;9.708;2023-04-25T06:41:35;25.92;;;3.92;;
28437;SDS011;15667;52.376;9.708;2023-04-25T06:44:01;16.33;;;3.00;;
28437;SDS011;15667;52.376;9.708;2023-04-25T06:46:27;15.13;;;3.17;;
28437;SDS011;15667;52.376;9.708;2023-04-25T06:48:52;20.73;;;3.42;;
28437;SDS011;15667;52.376;9.708;2023-04-25T06:51:18;17.38;;;3.38;;
28437;SDS011;15667;52.376;9.708;2023-04-25T06:53:44;20.98;;;3.22;;
28437;SDS011;15667;52.376;9.708;2023-04-25T06:56:09;23.85;;;3.70;;
28437;SDS011;15667;52.376;9.708;2023-04-25T06:58:35;20.42;;;3.42;;
28437;SDS011;15667;52.376;9.708;2023-04-25T07:01:00;15.07;;;3.38;;
28437;SDS011;15667;52.376;9.708;2023-04-25T07:03:26;16.77;;;3.30;;
28437;SDS011;15667;52.376;9.708;2023-04-25T07:05:51;12.05;;;2.95;;
28437;SDS011;15667;52.376;9.708;2023-04-25T07:08:17;16.15;;;3.47;;
28437;SDS011;15667;52.376;9.708;2023-04-25T07:10:43;15.35;;;2.95;;
28437;SDS011;15667;52.376;9.708;2023-04-25T07:13:08;11.70;;;2.67;;
28437;SDS011;15667;52.376;9.708;2023-04-25T07:15:34;17.67;;;2.95;;
28437;SDS011;15667;52.376;9.708;2023-04-25T07:18:00;14.88;;;3.05;;
28437;SDS011;15667;52.376;9.708;2023-04-25T07:20:25;15.70;;;2.85;;
28437;SDS011;15667;52.376;9.708;2023-04-25T07:22:52;20.25;;;4.15;;
28437;SDS011;15667;52.376;9.708;2023-04-25T07:25:21;24.38;;;3.40;;
28437;SDS011;15667;52.376;9.708;2023-04-25T07:27:47;14.05;;;2.88;;
28437;SDS011;15667;52.376;9.708;2023-04-25T07:30:12;12.27;;;2.63;;
28437;SDS011;15667;52.376;9.708;2023-04-25T07:32:38;19.77;;;3.50;;
28437;SDS011;15667;52.376;9.708;2023-04-25T07:35:04;19.70;;;2.90;;
28437;SDS011;15667;52.376;9.708;2023-04-25T07:37:35;22.85;;;3.78;;
28437;SDS011;15667;52.376;9.708;2023-04-25T07:40:01;17.60;;;2.15;;
28437;SDS011;15667;52.376;9.708;2023-04-25T07:42:28;12.30;;;2.40;;
28437;SDS011;15667;52.376;9.708;2023-04-25T07:44:54;9.73;;;2.70;;
28437;SDS011;15667;52.376;9.708;2023-04-25T07:47:20;12.65;;;2.72;;
28437;SDS011;15667;52.376;9.708;2023-04-25T07:49:46;14.60;;;2.78;;
28437;SDS011;15667;52.376;9.708;2023-04-25T07:52:12;12.75;;;2.40;;
28437;SDS011;15667;52.376;9.708;2023-04-25T07:54:37;16.70;;;2.80;;
28437;SDS011;15667;52.376;9.708;2023-04-25T07:57:03;12.52;;;2.80;;
28437;SDS011;15667;52.376;9.708;2023-04-25T07:59:31;18.90;;;3.03;;
28437;SDS011;15667;52.376;9.708;2023-04-25T08:01:56;13.10;;;2.47;;
28437;SDS011;15667;52.376;9.708;2023-04-25T08:04:22;13.57;;;2.72;;
28437;SDS011;15667;52.376;9.708;2023-04-25T08:06:48;18.10;;;3.00;;
28437;SDS011;15667;52.376;9.708;2023-04-25T08:09:15;19.50;;;2.60;;
28437;SDS011;15667;52.376;9.708;2023-04-25T08:11:40;8.13;;;2.10;;
28437;SDS011;15667;52.376;9.708;2023-04-25T08:14:07;12.10;;;2.38;;
28437;SDS011;15667;52.376;9.708;2023-04-25T08:16:32;14.70;;;2.75;;
28437;SDS011;15667;52.376;9.708;2023-04-25T08:18:59;19.00;;;2.80;;
28437;SDS011;15667;52.376;9.708;2023-04-25T08:21:25;14.27;;;2.72;;
28437;SDS011;15667;52.376;9.708;2023-04-25T08:23:52;11.68;;;2.35;;
28437;SDS011;15667;52.376;9.708;2023-04-25T08:26:18;10.90;;;2.40;;
28437;SDS011;15667;52.376;9.708;2023-04-25T08:28:43;14.38;;;2.08;;
28437;SDS011;15667;52.376;9.708;2023-04-25T08:31:09;11.75;;;2.55;;
28437;SDS011;15667;52.376;9.708;2023-04-25T08:33:35;11.88;;;2.40;;
28437;SDS011;15667;52.376;9.708;2023-04-25T08:36:01;17.17;;;2.63;;
28437;SDS011;15667;52.376;9.708;2023-04-25T08:38:26;12.43;;;2.40;;
28437;SDS011;15667;52.376;9.708;2023-04-25T08:40:52;11.48;;;3.08;;
28437;SDS011;15667;52.376;9.708;2023-04-25T08:43:20;11.82;;;2.10;;
28437;SDS011;15667;52.376;9.708;2023-04-25T08:45:46;7.60;;;2.08;;
28437;SDS011;15667;52.376;9.708;2023-04-25T08:48:13;8.23;;;1.90;;
28437;SDS011;15667;52.376;9.708;2023-04-25T08:53:16;9.45;;;1.80;;
28437;SDS011;15667;52.376;9.708;2023-04-25T08:55:45;13.98;;;2.25;;
28437;SDS011;15667;52.376;9.708;2023-04-25T08:58:11;11.30;;;1.90;;
28437;SDS011;15667;52.376;9.708;2023-04-25T09:00:38;10.77;;;2.22;;
28437;SDS011;15667;52.376;9.708;2023-04-25T09:03:04;15.57;;;2.33;;
28437;SDS011;15667;52.376;9.708;2023-04-25T09:05:30;6.75;;;1.83;;
28437;SDS011;15667;52.376;9.708;2023-04-25T09:08:00;8.75;;;1.92;;
28437;SDS011;15667;52.376;9.708;2023-04-25T09:10:26;10.50;;;1.40;;
28437;SDS011;15667;52.376;9.708;2023-04-25T09:15:49;12.00;;;1.60;;
28437;SDS011;15667;52.376;9.708;2023-04-25T09:18:23;11.20;;;1.58;;
28437;SDS011;15667;52.376;9.708;2023-04-25T09:20:51;11.30;;;1.60;;
28437;SDS011;15667;52.376;9.708;2023-04-25T09:23:21;4.57;;;1.48;;
28437;SDS011;15667;52.376;9.708;2023-04-25T09:25:48;6.80;;;1.30;;
28437;SDS011;15667;52.376;9.708;2023-04-25T09:28:15;9.55;;;1.65;;
28437;SDS011;15667;52.376;9.708;2023-04-25T09:30:47;6.88;;;1.42;;
28437;SDS011;15667;52.376;9.708;2023-04-25T09:33:14;6.10;;;1.25;;
28437;SDS011;15667;52.376;9.708;2023-04-25T09:36:10;3.87;;;1.43;;
28437;SDS011;15667;52.376;9.708;2023-04-25T09:38:40;7.88;;;1.30;;
28437;SDS011;15667;52.376;9.708;2023-04-25T09:41:12;5.97;;;1.23;;
28437;SDS011;15667;52.376;9.708;2023-04-25T09:43:50;8.18;;;1.55;;
28437;SDS011;15667;52.376;9.708;2023-04-25T09:46:16;7.97;;;1.40;;
28437;SDS011;15667;52.376;9.708;2023-04-25T09:48:48;8.23;;;1.13;;
28437;SDS011;15667;52.376;9.708;2023-04-25T09:51:15;6.03;;;1.38;;
28437;SDS011;15667;52.376;9.708;2023-04-25T09:53:44;5.18;;;1.08;;
28437;SDS011;15667;52.376;9.708;2023-04-25T09:56:31;6.78;;;1.20;;
28437;SDS011;15667;52.376;9.708;2023-04-25T09:59:02;9.15;;;1.52;;
28437;SDS011;15667;52.376;9.708;2023-04-25T10:04:04;3.78;;;1.15;;
28437;SDS011;15667;52.376;9.708;2023-04-25T10:06:35;7.47;;;1.40;;
28437;SDS011;15667;52.376;9.708;2023-04-25T10:09:03;4.85;;;1.27;;
28437;SDS011;15667;52.376;9.708;2023-04-25T10:11:29;5.72;;;1.58;;
28437;SDS011;15667;52.376;9.708;2023-04-25T10:13:56;4.63;;;1.30;;
28437;SDS011;15667;52.376;9.708;2023-04-25T10:16:22;5.95;;;1.95;;
28437;SDS011;15667;52.376;9.708;2023-04-25T10:18:49;4.07;;;1.35;;
28437;SDS011;15667;52.376;9.708;2023-04-25T10:21:16;3.83;;;1.30;;
28437;SDS011;15667;52.376;9.708;2023-04-25T10:23:42;9.18;;;2.03;;
28437;SDS011;15667;52.376;9.708;2023-04-25T10:26:10;9.07;;;1.52;;
28437;SDS011;15667;52.376;9.708;2023-04-25T10:31:23;6.03;;;1.48;;
28437;SDS011;15667;52.376;9.708;2023-04-25T10:33:48;7.05;;;2.00;;
28437;SDS011;15667;52.376;9.708;2023-04-25T10:36:18;7.95;;;1.60;;
28437;SDS011;15667;52.376;9.708;2023-04-25T10:38:45;8.70;;;1.67;;
28437;SDS011;15667;52.376;9.708;2023-04-25T10:41:13;8.77;;;1.80;;
28437;SDS011;15667;52.376;9.708;2023-04-25T10:43:42;9.70;;;1.60;;
28437;SDS011;15667;52.376;9.708;2023-04-25T10:46:19;7.30;;;1.58;;
28437;SDS011;15667;52.376;9.708;2023-04-25T10:48:54;6.22;;;1.38;;
28437;SDS011;15667;52.376;9.708;2023-04-25T10:51:30;9.20;;;1.70;;
28437;SDS011;15667;52.376;9.708;2023-04-25T10:54:04;5.65;;;1.58;;
28437;SDS011;15667;52.376;9.708;2023-04-25T10:59:08;5.85;;;1.38;;
28437;SDS011;15667;52.376;9.708;2023-04-25T11:01:39;8.55;;;1.48;;
28437;SDS011;15667;52.376;9.708;2023-04-25T11:04:06;11.35;;;1.40;;
28437;SDS011;15667;52.376;9.708;2023-04-25T11:09:44;6.97;;;1.30;;
28437;SDS011;15667;52.376;9.708;2023-04-25T11:12:10;6.80;;;1.55;;
28437;SDS011;15667;52.376;9.708;2023-04-25T11:14:39;5.22;;;1.60;;
28437;SDS011;15667;52.376;9.708;2023-04-25T11:17:06;5.88;;;1.15;;
28437;SDS011;15667;52.376;9.708;2023-04-25T11:19:32;7.05;;;1.10;;
28437;SDS011;15667;52.376;9.708;2023-04-25T11:21:58;5.13;;;1.17;;
28437;SDS011;15667;52.376;9.708;2023-04-25T11:24:28;11.25;;;1.42;;
28437;SDS011;15667;52.376;9.708;2023-04-25T11:26:54;7.60;;;1.40;;
28437;SDS011;15667;52.376;9.708;2023-04-25T11:29:23;8.02;;;1.45;;
28437;SDS011;15667;52.376;9.708;2023-04-25T11:31:52;6.55;;;1.42;;
28437;SDS011;15667;52.376;9.708;2023-04-25T11:34:18;5.60;;;1.50;;
28437;SDS011;15667;52.376;9.708;2023-04-25T11:36:44;8.48;;;1.58;;
28437;SDS011;15667;52.376;9.708;2023-04-25T11:39:11;5.57;;;1.50;;
28437;SDS011;15667;52.376;9.708;2023-04-25T11:41:38;8.45;;;2.03;;
28437;SDS011;15667;52.376;9.708;2023-04-25T11:44:03;7.57;;;1.50;;
28437;SDS011;15667;52.376;9.708;2023-04-25T11:46:30;7.00;;;1.75;;
28437;SDS011;15667;52.376;9.708;2023-04-25T11:48:59;8.93;;;1.67;;
28437;SDS011;15667;52.376;9.708;2023-04-25T11:51:25;8.65;;;2.13;;
28437;SDS011;15667;52.376;9.708;2023-04-25T11:53:51;7.32;;;1.85;;
28437;SDS011;15667;52.376;9.708;2023-04-25T11:56:16;8.45;;;1.70;;
28437;SDS011;15667;52.376;9.708;2023-04-25T11:58:55;4.90;;;1.95;;
28437;SDS011;15667;52.376;9.708;2023-04-25T12:02:09;8.98;;;1.55;;
28437;SDS011;15667;52.376;9.708;2023-04-25T12:04:23;6.93;;;1.70;;
28437;SDS011;15667;52.376;9.708;2023-04-25T12:06:51;8.52;;;1.63;;
28437;SDS011;15667;52.376;9.708;2023-04-25T12:09:19;8.75;;;2.00;;
28437;SDS011;15667;52.376;9.708;2023-04-25T12:11:55;8.40;;;1.50;;
28437;SDS011;15667;52.376;9.708;2023-04-25T12:16:51;4.45;;;1.20;;
28437;SDS011;15667;52.376;9.708;2023-04-25T12:19:19;5.95;;;0.70;;
28437;SDS011;15667;52.376;9.708;2023-04-25T12:21:46;3.50;;;0.60;;
28437;SDS011;15667;52.376;9.708;2023-04-25T12:24:13;1.40;;;0.57;;
28437;SDS011;15667;52.376;9.708;2023-04-25T12:26:53;3.40;;;0.55;;
28437;SDS011;15667;52.376;9.708;2023-04-25T12:29:25;3.70;;;0.70;;
28437;SDS011;15667;52.376;9.708;2023-04-25T12:31:53;4.20;;;0.60;;
28437;SDS011;15667;52.376;9.708;2023-04-25T12:34:19;3.22;;;0.60;;
28437;SDS011;15667;52.376;9.708;2023-04-25T12:36:45;4.30;;;0.80;;
28437;SDS011;15667;52.376;9.708;2023-04-25T12:39:18;4.20;;;0.88;;
28437;SDS011;15667;52.376;9.708;2023-04-25T12:41:45;3.47;;;0.90;;
28437;SDS011;15667;52.376;9.708;2023-04-25T12:44:11;4.80;;;0.93;;
28437;SDS011;15667;52.376;9.708;2023-04-25T12:46:38;2.08;;;0.90;;
28437;SDS011;15667;52.376;9.708;2023-04-25T12:49:04;5.10;;;0.60;;
28437;SDS011;15667;52.376;9.708;2023-04-25T12:51:32;2.35;;;0.70;;
28437;SDS011;15667;52.376;9.708;2023-04-25T12:54:01;0.80;;;0.60;;
28437;SDS011;15667;52.376;9.708;2023-04-25T12:56:27;2.88;;;0.70;;
28437;SDS011;15667;52.376;9.708;2023-04-25T12:58:54;1.92;;;0.57;;
28437;SDS011;15667;52.376;9.708;2023-04-25T13:01:20;1.20;;;0.47;;
28437;SDS011;15667;52.376;9.708;2023-04-25T13:06:17;1.88;;;0.75;;
28437;SDS011;15667;52.376;9.708;2023-04-25T13:08:43;4.07;;;1.00;;
28437;SDS011;15667;52.376;9.708;2023-04-25T13:11:09;1.27;;;0.80;;
28437;SDS011;15667;52.376;9.708;2023-04-25T13:13:35;3.53;;;0.93;;
28437;SDS011;15667;52.376;9.708;2023-04-25T13:16:01;4.90;;;1.20;;
28437;SDS011;15667;52.376;9.708;2023-04-25T13:18:27;4.18;;;1.35;;
28437;SDS011;15667;52.376;9.708;2023-04-25T13:20:53;6.35;;;1.25;;
28437;SDS011;15667;52.376;9.708;2023-04-25T13:23:20;6.47;;;1.48;;
28437;SDS011;15667;52.376;9.708;2023-04-25T13:25:45;6.35;;;1.65;;
28437;SDS011;15667;52.376;9.708;2023-04-25T13:28:12;8.73;;;1.52;;
28437;SDS011;15667;52.376;9.708;2023-04-25T13:30:38;7.47;;;1.70;;
28437;SDS011;15667;52.376;9.708;2023-04-25T13:33:04;10.43;;;1.60;;
28437;SDS011;15667;52.376;9.708;2023-04-25T13:35:31;6.70;;;1.90;;
28437;SDS011;15667;52.376;9.708;2023-04-25T13:37:58;5.47;;;1.70;;
28437;SDS011;15667;52.376;9.708;2023-04-25T13:40:23;3.30;;;1.35;;
28437;SDS011;15667;52.376;9.708;2023-04-25T13:42:49;6.35;;;1.23;;
28437;SDS011;15667;52.376;9.708;2023-04-25T13:45:16;5.28;;;1.90;;
28437;SDS011;15667;52.376;9.708;2023-04-25T13:47:41;3.92;;;1.60;;
28437;SDS011;15667;52.376;9.708;2023-04-25T13:50:07;3.50;;;1.38;;
28437;SDS011;15667;52.376;9.708;2023-04-25T13:52:33;5.13;;;0.98;;
28437;SDS011;15667;52.376;9.708;2023-04-25T13:54:59;5.00;;;1.42;;
28437;SDS011;15667;52.376;9.708;2023-04-25T13:57:25;4.38;;;1.20;;
28437;SDS011;15667;52.376;9.708;2023-04-25T13:59:50;4.95;;;1.27;;
28437;SDS011;15667;52.376;9.708;2023-04-25T14:02:17;5.53;;;1.20;;
28437;SDS011;15667;52.376;9.708;2023-04-25T14:04:43;7.78;;;1.40;;
28437;SDS011;15667;52.376;9.708;2023-04-25T14:07:08;3.63;;;1.15;;
28437;SDS011;15667;52.376;9.708;2023-04-25T14:09:35;3.28;;;1.30;;
28437;SDS011;15667;52.376;9.708;2023-04-25T14:12:02;6.10;;;1.75;;
28437;SDS011;15667;52.376;9.708;2023-04-25T14:14:27;6.90;;;1.60;;
28437;SDS011;15667;52.376;9.708;2023-04-25T14:16:53;6.50;;;1.30;;
28437;SDS011;15667;52.376;9.708;2023-04-25T14:19:20;8.32;;;1.27;;
28437;SDS011;15667;52.376;9.708;2023-04-25T14:21:46;5.35;;;1.50;;
28437;SDS011;15667;52.376;9.708;2023-04-25T14:24:11;7.70;;;1.95;;
28437;SDS011;15667;52.376;9.708;2023-04-25T14:26:38;7.50;;;2.05;;
28437;SDS011;15667;52.376;9.708;2023-04-25T14:29:04;7.15;;;1.30;;
28437;SDS011;15667;52.376;9.708;2023-04-25T14:31:32;5.85;;;2.22;;
28437;SDS011;15667;52.376;9.708;2023-04-25T14:33:58;5.60;;;1.27;;
28437;SDS011;15667;52.376;9.708;2023-04-25T14:36:24;3.95;;;1.25;;
28437;SDS011;15667;52.376;9.708;2023-04-25T14:38:51;5.38;;;1.20;;
28437;SDS011;15667;52.376;9.708;2023-04-25T14:41:17;3.95;;;1.25;;
28437;SDS011;15667;52.376;9.708;2023-04-25T14:43:43;4.75;;;1.10;;
28437;SDS011;15667;52.376;9.708;2023-04-25T14:46:09;2.90;;;1.02;;
28437;SDS011;15667;52.376;9.708;2023-04-25T14:48:35;4.70;;;0.90;;
28437;SDS011;15667;52.376;9.708;2023-04-25T14:51:01;5.70;;;0.80;;
28437;SDS011;15667;52.376;9.708;2023-04-25T14:53:27;2.63;;;0.82;;
28437;SDS011;15667;52.376;9.708;2023-04-25T14:55:52;6.20;;;0.95;;
28437;SDS011;15667;52.376;9.708;2023-04-25T14:58:18;5.80;;;1.08;;
28437;SDS011;15667;52.376;9.708;2023-04-25T15:00:45;5.30;;;1.30;;